createdAt,value
2018-04-15T00:00:39.636Z,0
2018-04-15T00:01:20.238Z,0
2018-04-15T00:02:00.822Z,0
2018-04-15T00:02:41.420Z,0
2018-04-15T00:03:21.996Z,0
2018-04-15T00:04:02.629Z,0
2018-04-15T00:04:43.200Z,0
2018-04-15T00:05:23.774Z,0
2018-04-15T00:06:04.365Z,0
2018-04-15T00:06:44.975Z,0
2018-04-15T00:07:25.543Z,0
2018-04-15T00:08:06.152Z,0
2018-04-15T00:08:46.749Z,0
2018-04-15T00:09:27.312Z,0
2018-04-15T00:10:07.894Z,0
2018-04-15T00:10:48.504Z,0
2018-04-15T00:11:29.068Z,0
2018-04-15T00:12:09.689Z,0
2018-04-15T00:12:50.257Z,0
2018-04-15T00:13:30.837Z,0
2018-04-15T00:14:11.404Z,0
2018-04-15T00:14:52.015Z,0
2018-04-15T00:15:32.590Z,0
2018-04-15T00:16:13.220Z,0
2018-04-15T00:16:53.820Z,0
2018-04-15T00:17:34.422Z,0
2018-04-15T00:18:15.007Z,0
2018-04-15T00:18:55.617Z,0
2018-04-15T00:19:36.223Z,0
2018-04-15T00:20:16.844Z,0
2018-04-15T00:20:57.431Z,0
2018-04-15T00:21:38.029Z,0
2018-04-15T00:22:18.621Z,0
2018-04-15T00:22:59.201Z,0
2018-04-15T00:23:39.785Z,0
2018-04-15T00:24:20.349Z,0
2018-04-15T00:25:00.955Z,0
2018-04-15T00:25:41.551Z,0
2018-04-15T00:26:22.153Z,0
2018-04-15T00:27:02.766Z,0
2018-04-15T00:27:43.378Z,0
2018-04-15T00:28:23.947Z,0
2018-04-15T00:29:04.516Z,0
2018-04-15T00:29:45.089Z,0
2018-04-15T00:30:25.661Z,0
2018-04-15T00:31:06.234Z,0
2018-04-15T00:31:46.802Z,0
2018-04-15T00:32:27.385Z,0
2018-04-15T00:33:07.965Z,0
2018-04-15T00:33:48.541Z,0
2018-04-15T00:34:29.139Z,0
2018-04-15T00:35:09.701Z,0
2018-04-15T00:35:50.267Z,0
2018-04-15T00:36:30.872Z,0
2018-04-15T00:37:11.409Z,0
2018-04-15T00:37:52.000Z,0
2018-04-15T00:38:32.592Z,0
2018-04-15T00:39:13.190Z,0
2018-04-15T00:39:53.765Z,0
2018-04-15T00:40:34.362Z,0
2018-04-15T00:41:14.970Z,0
2018-04-15T00:41:55.559Z,0
2018-04-15T00:42:36.124Z,0
2018-04-15T00:43:16.690Z,0
2018-04-15T00:43:57.247Z,0
2018-04-15T00:44:37.824Z,0
2018-04-15T00:45:18.426Z,0
2018-04-15T00:45:59.036Z,0
2018-04-15T00:46:39.626Z,0
2018-04-15T00:47:20.214Z,0
2018-04-15T00:48:00.785Z,0
2018-04-15T00:48:41.408Z,0
2018-04-15T00:49:21.996Z,0
2018-04-15T00:50:02.600Z,0
2018-04-15T00:50:43.181Z,0
2018-04-15T00:51:23.787Z,0
2018-04-15T00:52:04.361Z,0
2018-04-15T00:52:44.950Z,0
2018-04-15T00:53:25.518Z,0
2018-04-15T00:54:06.095Z,0
2018-04-15T00:54:46.662Z,0
2018-04-15T00:55:27.239Z,0
2018-04-15T00:56:07.859Z,0
2018-04-15T00:56:48.422Z,0
2018-04-15T00:57:28.992Z,0
2018-04-15T00:58:09.554Z,0
2018-04-15T00:58:50.137Z,0
2018-04-15T00:59:30.699Z,0
2018-04-15T01:00:11.403Z,0
2018-04-15T01:00:51.961Z,0
2018-04-15T01:01:32.548Z,0
2018-04-15T01:02:13.115Z,0
2018-04-15T01:02:53.682Z,0
2018-04-15T01:03:34.243Z,0
2018-04-15T01:04:14.817Z,0
2018-04-15T01:04:55.384Z,0
2018-04-15T01:05:35.972Z,0
2018-04-15T01:06:16.535Z,0
2018-04-15T01:06:57.120Z,0
2018-04-15T01:07:37.692Z,0
2018-04-15T01:08:18.280Z,0
2018-04-15T01:08:58.900Z,0
2018-04-15T01:09:39.504Z,0
2018-04-15T01:10:20.096Z,0
2018-04-15T01:11:00.690Z,0
2018-04-15T01:11:41.296Z,0
2018-04-15T01:12:21.894Z,0
2018-04-15T01:13:02.513Z,0
2018-04-15T01:13:43.112Z,0
2018-04-15T01:14:23.695Z,0
2018-04-15T01:15:04.272Z,0
2018-04-15T01:15:44.861Z,0
2018-04-15T01:16:25.434Z,0
2018-04-15T01:17:06.004Z,0
2018-04-15T01:17:46.573Z,0
2018-04-15T01:18:27.148Z,0
2018-04-15T01:19:07.716Z,0
2018-04-15T01:19:48.314Z,0
2018-04-15T01:22:16.462Z,0
2018-04-15T01:22:57.027Z,0
2018-04-15T01:23:37.578Z,0
2018-04-15T01:24:18.220Z,0
2018-04-15T01:24:58.825Z,0
2018-04-15T01:25:39.379Z,0
2018-04-15T01:26:19.943Z,0
2018-04-15T01:27:00.526Z,0
2018-04-15T01:27:41.102Z,0
2018-04-15T01:28:21.767Z,0
2018-04-15T01:29:02.347Z,0
2018-04-15T01:29:42.919Z,0
2018-04-15T01:30:23.497Z,0
2018-04-15T01:31:04.069Z,0
2018-04-15T01:31:44.635Z,0
2018-04-15T01:32:25.204Z,0
2018-04-15T01:33:05.760Z,0
2018-04-15T01:33:46.313Z,0
2018-04-15T01:34:26.872Z,0
2018-04-15T01:35:07.430Z,0
2018-04-15T01:35:47.980Z,0
2018-04-15T01:36:28.534Z,0
2018-04-15T01:37:09.098Z,0
2018-04-15T01:37:49.668Z,0
2018-04-15T01:38:30.227Z,0
2018-04-15T01:39:10.790Z,0
2018-04-15T01:39:51.338Z,0
2018-04-15T01:40:31.897Z,0
2018-04-15T01:41:12.454Z,0
2018-04-15T01:41:53.037Z,0
2018-04-15T01:42:33.613Z,0
2018-04-15T01:43:14.166Z,0
2018-04-15T01:43:54.783Z,0
2018-04-15T01:44:35.393Z,0
2018-04-15T01:45:15.947Z,0
2018-04-15T01:45:56.495Z,0
2018-04-15T01:46:37.045Z,0
2018-04-15T01:47:17.624Z,0
2018-04-15T01:47:58.178Z,0
2018-04-15T01:48:38.761Z,0
2018-04-15T01:49:19.348Z,0
2018-04-15T01:49:59.900Z,0
2018-04-15T01:50:40.460Z,0
2018-04-15T01:51:21.018Z,0
2018-04-15T01:52:01.574Z,0
2018-04-15T01:52:42.145Z,0
2018-04-15T01:53:22.717Z,0
2018-04-15T01:54:03.281Z,0
2018-04-15T01:54:43.868Z,0
2018-04-15T01:55:24.430Z,0
2018-04-15T01:56:04.992Z,0
2018-04-15T01:56:45.547Z,0
2018-04-15T01:57:26.160Z,0
2018-04-15T01:58:06.733Z,0
2018-04-15T01:58:47.295Z,0
2018-04-15T01:59:27.862Z,0
2018-04-15T02:00:08.420Z,0
2018-04-15T02:00:49.043Z,0
2018-04-15T02:01:29.588Z,0
2018-04-15T02:02:10.153Z,0
2018-04-15T02:02:50.707Z,0
2018-04-15T02:03:31.263Z,0
2018-04-15T02:04:11.867Z,0
2018-04-15T02:04:52.429Z,0
2018-04-15T02:05:32.996Z,0
2018-04-15T02:06:13.552Z,0
2018-04-15T02:06:54.119Z,0
2018-04-15T02:07:34.656Z,0
2018-04-15T02:08:15.226Z,0
2018-04-15T02:08:55.784Z,0
2018-04-15T02:09:36.354Z,0
2018-04-15T02:10:16.915Z,0
2018-04-15T02:10:57.485Z,0
2018-04-15T02:11:38.070Z,0
2018-04-15T02:12:18.631Z,0
2018-04-15T02:12:59.191Z,0
2018-04-15T02:13:39.742Z,0
2018-04-15T02:14:20.314Z,0
2018-04-15T02:15:00.895Z,0
2018-04-15T02:15:41.488Z,0
2018-04-15T02:16:22.052Z,0
2018-04-15T02:17:02.649Z,0
2018-04-15T02:17:43.202Z,0
2018-04-15T02:18:23.751Z,0
2018-04-15T02:19:04.320Z,0
2018-04-15T02:19:44.893Z,0
2018-04-15T02:20:25.437Z,0
2018-04-15T02:21:05.986Z,0
2018-04-15T02:21:46.538Z,0
2018-04-15T02:22:27.090Z,0
2018-04-15T02:23:07.656Z,0
2018-04-15T02:23:48.257Z,0
2018-04-15T02:24:28.815Z,0
2018-04-15T02:25:09.359Z,0
2018-04-15T02:25:49.918Z,0
2018-04-15T02:26:30.474Z,0
2018-04-15T02:27:11.052Z,0
2018-04-15T02:27:51.611Z,0
2018-04-15T02:28:32.172Z,0
2018-04-15T02:29:12.923Z,0
2018-04-15T02:29:53.373Z,0
2018-04-15T02:30:33.939Z,0
2018-04-15T02:31:14.506Z,0
2018-04-15T02:31:55.066Z,0
2018-04-15T02:32:35.629Z,0
2018-04-15T02:33:16.244Z,0
2018-04-15T02:33:56.818Z,0
2018-04-15T02:34:37.378Z,0
2018-04-15T02:35:17.935Z,0
2018-04-15T02:35:58.525Z,0
2018-04-15T02:36:39.090Z,0
2018-04-15T02:37:19.642Z,0
2018-04-15T02:38:00.203Z,0
2018-04-15T02:38:40.777Z,0
2018-04-15T02:39:21.333Z,0
2018-04-15T02:40:01.897Z,0
2018-04-15T02:40:42.442Z,0
2018-04-15T02:41:23.005Z,0
2018-04-15T02:42:03.574Z,0
2018-04-15T02:42:44.157Z,0
2018-04-15T02:43:24.749Z,0
2018-04-15T02:44:05.297Z,0
2018-04-15T02:44:45.853Z,0
2018-04-15T02:45:26.405Z,0
2018-04-15T02:46:06.969Z,0
2018-04-15T02:46:47.529Z,0
2018-04-15T02:47:28.091Z,0
2018-04-15T02:48:08.638Z,0
2018-04-15T02:48:49.193Z,0
2018-04-15T02:49:29.753Z,0
2018-04-15T02:50:10.307Z,0
2018-04-15T02:50:50.887Z,0
2018-04-15T02:51:31.434Z,0
2018-04-15T02:52:11.994Z,0
2018-04-15T02:52:52.578Z,0
2018-04-15T02:53:33.145Z,0
2018-04-15T02:54:13.706Z,0
2018-04-15T02:54:54.266Z,0
2018-04-15T02:55:34.819Z,0
2018-04-15T02:56:15.393Z,0
2018-04-15T02:56:55.934Z,0
2018-04-15T02:57:36.489Z,0
2018-04-15T02:58:17.042Z,0
2018-04-15T02:58:57.599Z,0
2018-04-15T02:59:38.168Z,0
2018-04-15T03:00:18.754Z,0
2018-04-15T03:00:59.313Z,0
2018-04-15T03:01:39.884Z,0
2018-04-15T03:02:20.432Z,0
2018-04-15T03:03:01.004Z,0
2018-04-15T03:03:41.592Z,0
2018-04-15T03:04:22.192Z,0
2018-04-15T03:05:02.749Z,0
2018-04-15T03:05:43.316Z,0
2018-04-15T03:06:23.899Z,0
2018-04-15T03:07:04.448Z,0
2018-04-15T03:07:45.038Z,0
2018-04-15T03:08:25.595Z,0
2018-04-15T03:09:06.157Z,0
2018-04-15T03:09:46.729Z,0
2018-04-15T03:10:27.280Z,0
2018-04-15T03:11:07.835Z,0
2018-04-15T03:11:48.458Z,0
2018-04-15T03:12:29.029Z,0
2018-04-15T03:13:09.597Z,0
2018-04-15T03:13:50.157Z,0
2018-04-15T03:14:30.714Z,0
2018-04-15T03:15:11.325Z,0
2018-04-15T03:15:51.884Z,0
2018-04-15T03:16:32.430Z,0
2018-04-15T03:17:12.985Z,0
2018-04-15T03:17:53.544Z,0
2018-04-15T03:18:34.117Z,0
2018-04-15T03:19:14.695Z,0
2018-04-15T03:19:55.292Z,0
2018-04-15T03:20:35.859Z,0
2018-04-15T03:21:16.433Z,0
2018-04-15T03:21:56.992Z,0
2018-04-15T03:22:37.574Z,0
2018-04-15T03:23:18.137Z,0
2018-04-15T03:23:58.704Z,0
2018-04-15T03:24:39.253Z,0
2018-04-15T03:25:19.804Z,0
2018-04-15T03:26:00.368Z,0
2018-04-15T03:26:40.932Z,0
2018-04-15T03:27:21.486Z,0
2018-04-15T03:28:02.050Z,0
2018-04-15T03:28:42.608Z,0
2018-04-15T03:29:23.166Z,0
2018-04-15T03:30:03.742Z,0
2018-04-15T03:30:44.314Z,0
2018-04-15T03:31:24.927Z,0
2018-04-15T03:32:05.496Z,0
2018-04-15T03:32:46.055Z,0
2018-04-15T03:33:26.610Z,0
2018-04-15T03:34:07.201Z,0
2018-04-15T03:34:47.778Z,0
2018-04-15T03:35:28.352Z,0
2018-04-15T03:36:08.973Z,0
2018-04-15T03:36:49.511Z,0
2018-04-15T03:37:30.081Z,0
2018-04-15T03:38:10.740Z,0
2018-04-15T03:38:51.211Z,0
2018-04-15T03:39:31.783Z,0
2018-04-15T03:40:12.343Z,0
2018-04-15T03:40:52.899Z,0
2018-04-15T03:41:33.465Z,0
2018-04-15T03:42:14.035Z,0
2018-04-15T03:42:54.592Z,0
2018-04-15T03:43:35.152Z,0
2018-04-15T03:44:15.745Z,0
2018-04-15T03:44:56.308Z,4
2018-04-15T03:45:36.871Z,4
2018-04-15T03:46:17.432Z,4
2018-04-15T03:46:58.001Z,0
2018-04-15T03:47:38.586Z,0
2018-04-15T03:48:19.154Z,4
2018-04-15T03:49:01.176Z,4
2018-04-15T03:49:43.732Z,4
2018-04-15T03:50:27.700Z,4
2018-04-15T03:51:12.688Z,4
2018-04-15T03:51:55.605Z,8
2018-04-15T03:52:44.183Z,8
2018-04-15T03:53:26.670Z,8
2018-04-15T03:54:09.713Z,8
2018-04-15T03:54:52.646Z,12
2018-04-15T03:55:38.619Z,12
2018-04-15T03:56:19.230Z,12
2018-04-15T03:57:07.124Z,16
2018-04-15T03:57:48.168Z,16
2018-04-15T03:58:33.117Z,16
2018-04-15T03:59:15.214Z,20
2018-04-15T03:59:56.016Z,20
2018-04-15T04:00:36.613Z,24
2018-04-15T04:01:17.169Z,24
2018-04-15T04:01:57.744Z,32
2018-04-15T04:02:39.008Z,32
2018-04-15T04:03:19.593Z,36
2018-04-15T04:04:00.160Z,40
2018-04-15T04:04:40.725Z,44
2018-04-15T04:05:21.288Z,48
2018-04-15T04:06:01.861Z,48
2018-04-15T04:06:42.405Z,56
2018-04-15T04:07:23.361Z,56
2018-04-15T04:08:03.846Z,60
2018-04-15T04:08:44.431Z,68
2018-04-15T04:09:24.998Z,72
2018-04-15T04:10:05.610Z,80
2018-04-15T04:10:46.198Z,84
2018-04-15T04:11:26.758Z,92
2018-04-15T04:12:07.324Z,96
2018-04-15T04:12:48.287Z,100
2018-04-15T04:13:28.845Z,108
2018-04-15T04:14:09.436Z,112
2018-04-15T04:14:49.992Z,120
2018-04-15T04:15:30.566Z,128
2018-04-15T04:16:11.449Z,132
2018-04-15T04:16:52.294Z,136
2018-04-15T04:17:32.857Z,144
2018-04-15T04:18:13.415Z,148
2018-04-15T04:18:54.242Z,156
2018-04-15T04:19:34.797Z,160
2018-04-15T04:20:15.384Z,164
2018-04-15T04:20:55.927Z,168
2018-04-15T04:21:36.695Z,172
2018-04-15T04:22:17.256Z,180
2018-04-15T04:22:57.813Z,184
2018-04-15T04:23:38.376Z,188
2018-04-15T04:24:18.950Z,196
2018-04-15T04:25:00.524Z,200
2018-04-15T04:25:40.148Z,208
2018-04-15T04:26:20.713Z,212
2018-04-15T04:27:01.281Z,224
2018-04-15T04:27:41.842Z,228
2018-04-15T04:28:22.402Z,240
2018-04-15T04:29:02.947Z,248
2018-04-15T04:29:43.501Z,260
2018-04-15T04:30:24.065Z,276
2018-04-15T04:31:04.657Z,292
2018-04-15T04:31:45.223Z,308
2018-04-15T04:32:25.797Z,320
2018-04-15T04:33:06.350Z,336
2018-04-15T04:33:46.910Z,352
2018-04-15T04:34:27.458Z,364
2018-04-15T04:35:08.085Z,380
2018-04-15T04:35:48.732Z,392
2018-04-15T04:36:29.303Z,408
2018-04-15T04:37:09.874Z,424
2018-04-15T04:37:50.821Z,432
2018-04-15T04:38:31.527Z,448
2018-04-15T04:39:12.089Z,456
2018-04-15T04:39:52.656Z,468
2018-04-15T04:40:33.320Z,476
2018-04-15T04:41:15.279Z,488
2018-04-15T04:41:56.007Z,500
2018-04-15T04:42:36.895Z,516
2018-04-15T04:43:17.301Z,540
2018-04-15T04:43:57.863Z,564
2018-04-15T04:44:38.446Z,592
2018-04-15T04:45:19.075Z,620
2018-04-15T04:45:59.641Z,652
2018-04-15T04:46:40.693Z,688
2018-04-15T04:47:21.330Z,716
2018-04-15T04:48:01.887Z,748
2018-04-15T04:48:42.453Z,784
2018-04-15T04:49:23.020Z,812
2018-04-15T04:50:04.569Z,840
2018-04-15T04:50:45.129Z,868
2018-04-15T04:51:25.926Z,900
2018-04-15T04:52:06.490Z,924
2018-04-15T04:52:47.051Z,952
2018-04-15T04:53:27.623Z,976
2018-04-15T04:54:08.309Z,1004
2018-04-15T04:54:50.139Z,1028
2018-04-15T04:55:30.486Z,1052
2018-04-15T04:56:11.038Z,1076
2018-04-15T04:56:51.606Z,1112
2018-04-15T04:57:32.184Z,1140
2018-04-15T04:58:12.753Z,1168
2018-04-15T04:58:53.323Z,1196
2018-04-15T04:59:33.898Z,1220
2018-04-15T05:00:14.475Z,1244
2018-04-15T05:00:55.051Z,1276
2018-04-15T05:01:35.631Z,1316
2018-04-15T05:02:16.195Z,1348
2018-04-15T05:02:56.773Z,1380
2018-04-15T05:03:37.337Z,1424
2018-04-15T05:04:17.920Z,1460
2018-04-15T05:04:58.494Z,1484
2018-04-15T05:05:39.051Z,1508
2018-04-15T05:06:19.623Z,1524
2018-04-15T05:07:00.186Z,1536
2018-04-15T05:07:40.779Z,1548
2018-04-15T05:08:21.379Z,1556
2018-04-15T05:09:02.068Z,1556
2018-04-15T05:09:42.540Z,1552
2018-04-15T05:10:23.106Z,1544
2018-04-15T05:11:03.660Z,1540
2018-04-15T05:11:44.238Z,1532
2018-04-15T05:12:24.839Z,1520
2018-04-15T05:13:05.395Z,1512
2018-04-15T05:13:45.961Z,1504
2018-04-15T05:14:26.592Z,1500
2018-04-15T05:15:07.148Z,1512
2018-04-15T05:15:47.704Z,1528
2018-04-15T05:16:28.262Z,1540
2018-04-15T05:17:08.838Z,1564
2018-04-15T05:17:49.382Z,1596
2018-04-15T05:18:29.934Z,1628
2018-04-15T05:19:10.533Z,1656
2018-04-15T05:19:51.097Z,1676
2018-04-15T05:20:31.662Z,1692
2018-04-15T05:21:12.229Z,1704
2018-04-15T05:21:52.788Z,1720
2018-04-15T05:22:33.349Z,1736
2018-04-15T05:23:13.943Z,1760
2018-04-15T05:23:54.513Z,1788
2018-04-15T05:24:35.072Z,1812
2018-04-15T05:25:15.642Z,1844
2018-04-15T05:25:56.210Z,1856
2018-04-15T05:26:36.817Z,1876
2018-04-15T05:27:17.370Z,1896
2018-04-15T05:27:57.956Z,1900
2018-04-15T05:28:38.564Z,1904
2018-04-15T05:29:19.147Z,1928
2018-04-15T05:29:59.734Z,1960
2018-04-15T05:30:40.313Z,2000
2018-04-15T05:31:20.865Z,2044
2018-04-15T05:32:01.455Z,2092
2018-04-15T05:32:42.020Z,2128
2018-04-15T05:33:22.585Z,2164
2018-04-15T05:34:03.171Z,2200
2018-04-15T05:34:43.730Z,2232
2018-04-15T05:35:24.288Z,2280
2018-04-15T05:36:04.850Z,2328
2018-04-15T05:36:45.404Z,2376
2018-04-15T05:37:25.954Z,2420
2018-04-15T05:38:06.508Z,2480
2018-04-15T05:38:47.098Z,2540
2018-04-15T05:39:27.639Z,2604
2018-04-15T05:40:08.189Z,2676
2018-04-15T05:40:48.744Z,2748
2018-04-15T05:41:29.308Z,2800
2018-04-15T05:42:09.865Z,2828
2018-04-15T05:42:50.424Z,2800
2018-04-15T05:43:30.981Z,2656
2018-04-15T05:44:11.541Z,2304
2018-04-15T05:44:52.105Z,1884
2018-04-15T05:45:32.666Z,1592
2018-04-15T05:46:13.232Z,1460
2018-04-15T05:46:53.820Z,1420
2018-04-15T05:47:34.467Z,1420
2018-04-15T05:48:14.971Z,1436
2018-04-15T05:48:55.718Z,1476
2018-04-15T05:49:36.267Z,1564
2018-04-15T05:50:16.828Z,1660
2018-04-15T05:50:57.388Z,1744
2018-04-15T05:51:37.937Z,1804
2018-04-15T05:52:18.503Z,1828
2018-04-15T05:52:59.060Z,1816
2018-04-15T05:53:39.647Z,1724
2018-04-15T05:54:20.246Z,1564
2018-04-15T05:55:00.820Z,1376
2018-04-15T05:55:41.400Z,1252
2018-04-15T05:56:21.952Z,1208
2018-04-15T05:57:02.514Z,1252
2018-04-15T05:57:43.069Z,1376
2018-04-15T05:58:23.632Z,1564
2018-04-15T05:59:04.208Z,1784
2018-04-15T05:59:44.745Z,2076
2018-04-15T06:00:25.310Z,2416
2018-04-15T06:01:05.870Z,2820
2018-04-15T06:01:46.477Z,3196
2018-04-15T06:02:27.044Z,3544
2018-04-15T06:03:07.640Z,3932
2018-04-15T06:03:48.208Z,4356
2018-04-15T06:04:28.759Z,4752
2018-04-15T06:05:09.324Z,5196
2018-04-15T06:05:49.899Z,5544
2018-04-15T06:06:30.453Z,5844
2018-04-15T06:07:11.009Z,6100
2018-04-15T06:07:51.569Z,6568
2018-04-15T06:08:32.128Z,7504
2018-04-15T06:09:12.718Z,7488
2018-04-15T06:09:53.279Z,7464
2018-04-15T06:10:33.874Z,8032
2018-04-15T06:11:14.464Z,7800
2018-04-15T06:11:55.020Z,8388
2018-04-15T06:12:35.612Z,8184
2018-04-15T06:14:53.498Z,9508
2018-04-15T06:15:34.148Z,9920
2018-04-15T06:16:14.779Z,9080
2018-04-15T06:16:55.407Z,8772
2018-04-15T06:17:35.974Z,9024
2018-04-15T06:18:16.545Z,8988
2018-04-15T06:18:57.117Z,8068
2018-04-15T06:19:37.684Z,7580
2018-04-15T06:20:18.252Z,6616
2018-04-15T06:20:58.815Z,5696
2018-04-15T06:21:39.390Z,4920
2018-04-15T06:22:19.933Z,4312
2018-04-15T06:23:00.498Z,3836
2018-04-15T06:23:41.062Z,3504
2018-04-15T06:24:21.673Z,3284
2018-04-15T06:25:02.265Z,3152
2018-04-15T06:25:42.840Z,3040
2018-04-15T06:26:23.382Z,2952
2018-04-15T06:27:03.969Z,2892
2018-04-15T06:27:44.537Z,2900
2018-04-15T06:28:25.167Z,2956
2018-04-15T06:29:05.844Z,3016
2018-04-15T06:29:46.410Z,3160
2018-04-15T06:30:27.046Z,3300
2018-04-15T06:31:07.631Z,3428
2018-04-15T06:31:48.195Z,3544
2018-04-15T06:32:28.771Z,3696
2018-04-15T06:33:09.383Z,3896
2018-04-15T06:33:49.952Z,4236
2018-04-15T06:34:30.504Z,4848
2018-04-15T06:35:11.216Z,6156
2018-04-15T06:35:51.950Z,12836
2018-04-15T06:36:32.916Z,10556
2018-04-15T06:37:13.492Z,8032
2018-04-15T06:37:54.053Z,7296
2018-04-15T06:38:34.612Z,7316
2018-04-15T06:39:15.212Z,8204
2018-04-15T06:39:56.064Z,9116
2018-04-15T06:40:36.617Z,12468
2018-04-15T06:41:17.419Z,20704
2018-04-15T06:41:57.970Z,23712
2018-04-15T06:42:38.546Z,20832
2018-04-15T06:43:19.227Z,7748
2018-04-15T06:44:00.153Z,7472
2018-04-15T06:44:40.774Z,8196
2018-04-15T06:45:22.107Z,8876
2018-04-15T06:46:03.012Z,11104
2018-04-15T06:46:43.628Z,9296
2018-04-15T06:47:24.299Z,8032
2018-04-15T06:48:05.278Z,8476
2018-04-15T06:48:47.059Z,10808
2018-04-15T06:49:27.731Z,14552
2018-04-15T06:50:08.295Z,13528
2018-04-15T06:50:49.014Z,19104
2018-04-15T06:51:29.688Z,20192
2018-04-15T06:52:10.252Z,26240
2018-04-15T06:52:50.865Z,23904
2018-04-15T06:53:31.452Z,22496
2018-04-15T06:54:12.124Z,20000
2018-04-15T06:54:52.782Z,26496
2018-04-15T06:55:33.518Z,28320
2018-04-15T06:56:14.126Z,27552
2018-04-15T06:56:54.718Z,26112
2018-04-15T06:57:35.271Z,26272
2018-04-15T06:58:16.072Z,26048
2018-04-15T06:58:57.088Z,25056
2018-04-15T06:59:39.457Z,25824
2018-04-15T07:00:20.012Z,28704
2018-04-15T07:01:00.555Z,27776
2018-04-15T07:01:41.127Z,28800
2018-04-15T07:02:21.997Z,28480
2018-04-15T07:03:02.987Z,26208
2018-04-15T07:03:43.785Z,28064
2018-04-15T07:04:24.599Z,25184
2018-04-15T07:05:05.654Z,27104
2018-04-15T07:05:46.636Z,27936
2018-04-15T07:06:27.228Z,31104
2018-04-15T07:07:07.824Z,29760
2018-04-15T07:07:48.388Z,29952
2018-04-15T07:08:28.951Z,26880
2018-04-15T07:09:09.538Z,25472
2018-04-15T07:09:50.177Z,24800
2018-04-15T07:10:30.742Z,23936
2018-04-15T07:11:11.303Z,25696
2018-04-15T07:11:51.879Z,23840
2018-04-15T07:12:32.430Z,23232
2018-04-15T07:13:12.987Z,25248
2018-04-15T07:13:53.570Z,28864
2018-04-15T07:14:34.148Z,32640
2018-04-15T07:15:14.722Z,35232
2018-04-15T07:15:55.296Z,35200
2018-04-15T07:16:35.903Z,34912
2018-04-15T07:17:16.393Z,30816
2018-04-15T07:17:56.959Z,26432
2018-04-15T07:18:37.539Z,30016
2018-04-15T07:19:18.099Z,29024
2018-04-15T07:19:58.666Z,17408
2018-04-15T07:20:39.232Z,14688
2018-04-15T07:21:19.796Z,17920
2018-04-15T07:22:00.350Z,20928
2018-04-15T07:22:40.912Z,27008
2018-04-15T07:23:21.496Z,30976
2018-04-15T07:24:02.056Z,31424
2018-04-15T07:24:42.625Z,31200
2018-04-15T07:25:23.215Z,36256
2018-04-15T07:26:03.798Z,35712
2018-04-15T07:26:44.403Z,38560
2018-04-15T07:27:24.981Z,38528
2018-04-15T07:28:05.519Z,36512
2018-04-15T07:28:46.104Z,36544
2018-04-15T07:29:26.674Z,39040
2018-04-15T07:30:07.252Z,36800
2018-04-15T07:30:47.810Z,39360
2018-04-15T07:31:28.376Z,37856
2018-04-15T07:32:08.945Z,39744
2018-04-15T07:32:49.512Z,41856
2018-04-15T07:33:30.076Z,42624
2018-04-15T07:34:10.648Z,37056
2018-04-15T07:34:51.213Z,34368
2018-04-15T07:35:31.813Z,29344
2018-04-15T07:36:12.407Z,28000
2018-04-15T07:36:52.969Z,28160
2018-04-15T07:37:33.532Z,31328
2018-04-15T07:38:14.097Z,39264
2018-04-15T07:38:54.649Z,39584
2018-04-15T07:39:35.212Z,41152
2018-04-15T07:40:15.770Z,40928
2018-04-15T07:40:56.336Z,43936
2018-04-15T07:41:36.908Z,44704
2018-04-15T07:42:17.461Z,46304
2018-04-15T07:42:58.025Z,39904
2018-04-15T07:43:38.611Z,36416
2018-04-15T07:44:19.221Z,32256
2018-04-15T07:44:59.790Z,34880
2018-04-15T07:45:40.390Z,34720
2018-04-15T07:46:20.947Z,38272
2018-04-15T07:47:01.505Z,37728
2018-04-15T07:47:42.086Z,40352
2018-04-15T07:48:22.750Z,40896
2018-04-15T07:49:03.316Z,41696
2018-04-15T07:49:43.920Z,43776
2018-04-15T07:50:24.511Z,42144
2018-04-15T07:51:05.066Z,43008
2018-04-15T07:51:45.625Z,40608
2018-04-15T07:52:26.190Z,39456
2018-04-15T07:53:06.749Z,43776
2018-04-15T07:53:47.332Z,40320
2018-04-15T07:54:27.901Z,43648
2018-04-15T07:55:08.482Z,38784
2018-04-15T07:55:49.036Z,29888
2018-04-15T07:56:29.615Z,34464
2018-04-15T07:57:10.190Z,35008
2018-04-15T07:57:50.774Z,32576
2018-04-15T07:58:31.340Z,32000
2018-04-15T07:59:11.916Z,32608
2018-04-15T07:59:52.501Z,30336
2018-04-15T08:00:33.093Z,29216
2018-04-15T08:01:13.684Z,33056
2018-04-15T08:01:54.248Z,35360
2018-04-15T08:02:34.801Z,37632
2018-04-15T08:03:15.369Z,35872
2018-04-15T08:03:55.935Z,32160
2018-04-15T08:04:36.495Z,26720
2018-04-15T08:05:17.099Z,30720
2018-04-15T08:05:57.669Z,34112
2018-04-15T08:06:38.263Z,35264
2018-04-15T08:07:18.815Z,40992
2018-04-15T08:07:59.378Z,39616
2018-04-15T08:08:39.919Z,45248
2018-04-15T08:09:20.462Z,41024
2018-04-15T08:10:01.020Z,31040
2018-04-15T08:10:41.597Z,23712
2018-04-15T08:11:22.177Z,21152
2018-04-15T08:12:02.721Z,20288
2018-04-15T08:12:43.288Z,19392
2018-04-15T08:13:23.850Z,19200
2018-04-15T08:14:04.404Z,17088
2018-04-15T08:14:44.950Z,17632
2018-04-15T08:15:25.524Z,16960
2018-04-15T08:16:06.116Z,17216
2018-04-15T08:16:46.712Z,17312
2018-04-15T08:17:27.299Z,17632
2018-04-15T08:18:07.883Z,17440
2018-04-15T08:18:48.442Z,17344
2018-04-15T08:19:29.069Z,16736
2018-04-15T08:20:09.624Z,16800
2018-04-15T08:20:50.204Z,16736
2018-04-15T08:21:30.800Z,16864
2018-04-15T08:22:11.384Z,17248
2018-04-15T08:22:51.938Z,17152
2018-04-15T08:23:32.523Z,16576
2018-04-15T08:24:13.098Z,15976
2018-04-15T08:24:53.663Z,15696
2018-04-15T08:25:34.219Z,15528
2018-04-15T08:26:14.786Z,15376
2018-04-15T08:26:55.330Z,15092
2018-04-15T08:27:35.943Z,14616
2018-04-15T08:28:16.501Z,14208
2018-04-15T08:28:57.088Z,13848
2018-04-15T08:29:37.642Z,13940
2018-04-15T08:30:18.221Z,14252
2018-04-15T08:30:58.815Z,14080
2018-04-15T08:31:39.395Z,13948
2018-04-15T08:32:20.211Z,13660
2018-04-15T08:33:00.963Z,13648
2018-04-15T08:33:41.527Z,13720
2018-04-15T08:34:22.095Z,14128
2018-04-15T08:35:02.660Z,13936
2018-04-15T08:35:43.241Z,13888
2018-04-15T08:36:23.817Z,13900
2018-04-15T08:37:04.409Z,13992
2018-04-15T08:37:45.011Z,14028
2018-04-15T08:38:25.591Z,13900
2018-04-15T08:39:06.131Z,13844
2018-04-15T08:39:46.754Z,13652
2018-04-15T08:40:27.349Z,13428
2018-04-15T08:41:07.899Z,13152
2018-04-15T08:41:48.486Z,12824
2018-04-15T08:42:29.056Z,12596
2018-04-15T08:43:09.640Z,12556
2018-04-15T08:43:50.226Z,12520
2018-04-15T08:44:30.872Z,12432
2018-04-15T08:45:11.420Z,12192
2018-04-15T08:45:51.974Z,11872
2018-04-15T08:46:32.582Z,11936
2018-04-15T08:47:13.093Z,11672
2018-04-15T08:47:53.666Z,11548
2018-04-15T08:48:34.228Z,11472
2018-04-15T08:49:14.788Z,11208
2018-04-15T08:49:55.354Z,11004
2018-04-15T08:50:36.140Z,10584
2018-04-15T08:51:16.710Z,10208
2018-04-15T08:51:57.296Z,10092
2018-04-15T08:52:37.863Z,9512
2018-04-15T08:53:18.419Z,9268
2018-04-15T08:53:58.991Z,9216
2018-04-15T08:54:39.551Z,9304
2018-04-15T08:55:20.119Z,9756
2018-04-15T08:56:00.683Z,9524
2018-04-15T08:56:41.220Z,9600
2018-04-15T08:57:21.867Z,9084
2018-04-15T08:58:02.398Z,9396
2018-04-15T08:58:42.964Z,9556
2018-04-15T08:59:23.510Z,9464
2018-04-15T09:00:04.059Z,9056
2018-04-15T09:00:44.638Z,8780
2018-04-15T09:01:25.193Z,8448
2018-04-15T09:02:05.778Z,8812
2018-04-15T09:02:46.344Z,7960
2018-04-15T09:03:26.914Z,7764
2018-04-15T09:04:07.479Z,7440
2018-04-15T09:04:48.024Z,7112
2018-04-15T09:05:28.575Z,7308
2018-04-15T09:06:09.136Z,7312
2018-04-15T09:06:49.707Z,6892
2018-04-15T09:07:30.290Z,6808
2018-04-15T09:08:10.847Z,7016
2018-04-15T09:08:51.416Z,7432
2018-04-15T09:09:31.973Z,7168
2018-04-15T09:10:12.534Z,6816
2018-04-15T09:10:53.085Z,6932
2018-04-15T09:11:33.657Z,7316
2018-04-15T09:12:14.259Z,7576
2018-04-15T09:12:54.889Z,7444
2018-04-15T09:13:35.454Z,6604
2018-04-15T09:14:16.052Z,6548
2018-04-15T09:14:56.639Z,7096
2018-04-15T09:15:37.243Z,6896
2018-04-15T09:16:17.800Z,7068
2018-04-15T09:16:58.376Z,7668
2018-04-15T09:17:38.939Z,8000
2018-04-15T09:18:19.732Z,7892
2018-04-15T09:19:00.309Z,7760
2018-04-15T09:19:40.886Z,7688
2018-04-15T09:20:21.466Z,7508
2018-04-15T09:21:02.043Z,7460
2018-04-15T09:21:42.655Z,7348
2018-04-15T09:22:23.205Z,7248
2018-04-15T09:23:03.762Z,7152
2018-04-15T09:23:44.331Z,7068
2018-04-15T09:24:24.905Z,6984
2018-04-15T09:25:05.476Z,6948
2018-04-15T09:25:46.089Z,6872
2018-04-15T09:26:26.848Z,6748